sensor_id;sensor_type;location;lat;lon;timestamp;temperature;humidity
16128;DHT22;8168;49.036;7.690;2023-12-04T00:01:49;-2.80;99.90
16128;DHT22;8168;49.036;7.690;2023-12-04T00:54:42;-3.00;99.90
16128;DHT22;8168;49.036;7.690;2023-12-04T00:59:44;-3.10;99.90
16128;DHT22;8168;49.036;7.690;2023-12-04T01:17:20;-3.10;99.90
16128;DHT22;8168;49.036;7.690;2023-12-04T01:19:51;-3.10;99.90
16128;DHT22;8168;49.036;7.690;2023-12-04T01:47:32;-3.20;99.90
16128;DHT22;8168;49.036;7.690;2023-12-04T01:50:02;-3.20;99.90
16128;DHT22;8168;49.036;7.690;2023-12-04T01:52:35;-3.20;99.90
16128;DHT22;8168;49.036;7.690;2023-12-04T01:55:07;-3.20;99.90
16128;DHT22;8168;49.036;7.690;2023-12-04T01:57:39;-3.20;99.90
16128;DHT22;8168;49.036;7.690;2023-12-04T02:05:14;-3.20;99.90
16128;DHT22;8168;49.036;7.690;2023-12-04T02:27:54;-3.30;99.90
16128;DHT22;8168;49.036;7.690;2023-12-04T02:30:27;-3.20;99.90
16128;DHT22;8168;49.036;7.690;2023-12-04T02:32:59;-3.30;99.90
16128;DHT22;8168;49.036;7.690;2023-12-04T02:35:33;-3.30;99.90
16128;DHT22;8168;49.036;7.690;2023-12-04T02:38:05;-3.30;99.90
16128;DHT22;8168;49.036;7.690;2023-12-04T02:40:35;-3.30;99.90
16128;DHT22;8168;49.036;7.690;2023-12-04T02:43:06;-3.30;99.90
16128;DHT22;8168;49.036;7.690;2023-12-04T02:50:40;-3.20;99.90
16128;DHT22;8168;49.036;7.690;2023-12-04T03:00:44;-3.20;99.90
16128;DHT22;8168;49.036;7.690;2023-12-04T03:20:53;-3.40;99.90
16128;DHT22;8168;49.036;7.690;2023-12-04T03:38:30;-3.20;99.90
16128;DHT22;8168;49.036;7.690;2023-12-04T03:51:05;-2.90;99.90
16128;DHT22;8168;49.036;7.690;2023-12-04T03:56:07;-2.90;99.90
16128;DHT22;8168;49.036;7.690;2023-12-04T03:58:38;-2.90;99.90
16128;DHT22;8168;49.036;7.690;2023-12-04T04:06:12;-2.80;99.90
16128;DHT22;8168;49.036;7.690;2023-12-04T04:16:16;-2.50;99.90
16128;DHT22;8168;49.036;7.690;2023-12-04T05:31:46;-1.90;99.90
16128;DHT22;8168;49.036;7.690;2023-12-04T05:51:54;-1.90;99.90
16128;DHT22;8168;49.036;7.690;2023-12-04T06:01:58;-1.80;99.90
16128;DHT22;8168;49.036;7.690;2023-12-04T06:14:38;-1.70;99.90
16128;DHT22;8168;49.036;7.690;2023-12-04T06:19:40;-1.40;99.90
16128;DHT22;8168;49.036;7.690;2023-12-04T06:22:10;-1.40;99.90
16128;DHT22;8168;49.036;7.690;2023-12-04T06:24:41;-1.30;99.90
16128;DHT22;8168;49.036;7.690;2023-12-04T06:27:16;-1.30;99.90
16128;DHT22;8168;49.036;7.690;2023-12-04T06:29:49;-1.20;99.90
16128;DHT22;8168;49.036;7.690;2023-12-04T06:32:21;-1.20;99.90
16128;DHT22;8168;49.036;7.690;2023-12-04T06:34:52;-1.10;99.90
16128;DHT22;8168;49.036;7.690;2023-12-04T06:37:24;-1.10;99.90
16128;DHT22;8168;49.036;7.690;2023-12-04T06:39:59;-1.10;99.90
16128;DHT22;8168;49.036;7.690;2023-12-04T06:42:33;-1.10;99.90
16128;DHT22;8168;49.036;7.690;2023-12-04T06:45:04;-1.00;99.90
16128;DHT22;8168;49.036;7.690;2023-12-04T06:47:35;-1.00;99.90
16128;DHT22;8168;49.036;7.690;2023-12-04T06:50:07;-1.00;99.90
16128;DHT22;8168;49.036;7.690;2023-12-04T06:52:37;-1.00;99.90
16128;DHT22;8168;49.036;7.690;2023-12-04T06:55:08;-0.90;99.90
16128;DHT22;8168;49.036;7.690;2023-12-04T06:57:40;-0.90;99.90
16128;DHT22;8168;49.036;7.690;2023-12-04T07:00:11;-0.90;99.90
16128;DHT22;8168;49.036;7.690;2023-12-04T07:02:45;-0.80;99.90
16128;DHT22;8168;49.036;7.690;2023-12-04T07:05:16;-0.80;99.90
16128;DHT22;8168;49.036;7.690;2023-12-04T07:07:46;-0.70;99.90
16128;DHT22;8168;49.036;7.690;2023-12-04T07:10:17;-0.70;99.90
16128;DHT22;8168;49.036;7.690;2023-12-04T07:12:48;-0.70;99.90
16128;DHT22;8168;49.036;7.690;2023-12-04T07:15:18;-0.70;99.90
16128;DHT22;8168;49.036;7.690;2023-12-04T07:20:20;-0.70;99.90
16128;DHT22;8168;49.036;7.690;2023-12-04T07:22:52;-0.60;99.90
16128;DHT22;8168;49.036;7.690;2023-12-04T07:25:23;-0.60;99.90
16128;DHT22;8168;49.036;7.690;2023-12-04T07:27:54;-0.60;99.90
16128;DHT22;8168;49.036;7.690;2023-12-04T07:30:25;-0.60;99.90
16128;DHT22;8168;49.036;7.690;2023-12-04T07:32:56;-0.60;99.90
16128;DHT22;8168;49.036;7.690;2023-12-04T07:35:26;-0.60;99.90
16128;DHT22;8168;49.036;7.690;2023-12-04T07:37:57;-0.60;99.90
16128;DHT22;8168;49.036;7.690;2023-12-04T07:40:28;-0.60;99.90
16128;DHT22;8168;49.036;7.690;2023-12-04T07:42:58;0.90;99.90
16128;DHT22;8168;49.036;7.690;2023-12-04T07:45:29;-0.60;99.90
16128;DHT22;8168;49.036;7.690;2023-12-04T07:47:59;-0.60;99.90
16128;DHT22;8168;49.036;7.690;2023-12-04T07:50:30;0.10;99.90
16128;DHT22;8168;49.036;7.690;2023-12-04T07:53:02;-0.50;99.90
16128;DHT22;8168;49.036;7.690;2023-12-04T07:55:32;-0.60;99.90
16128;DHT22;8168;49.036;7.690;2023-12-04T07:58:03;-0.50;99.90
16128;DHT22;8168;49.036;7.690;2023-12-04T08:00:33;-0.60;99.90
16128;DHT22;8168;49.036;7.690;2023-12-04T08:03:04;-0.60;99.90
16128;DHT22;8168;49.036;7.690;2023-12-04T08:05:34;-0.60;99.90
16128;DHT22;8168;49.036;7.690;2023-12-04T08:08:05;-0.60;99.90
16128;DHT22;8168;49.036;7.690;2023-12-04T08:10:36;-0.60;99.90
16128;DHT22;8168;49.036;7.690;2023-12-04T08:13:07;-0.60;99.90
16128;DHT22;8168;49.036;7.690;2023-12-04T08:15:38;-0.60;99.90
16128;DHT22;8168;49.036;7.690;2023-12-04T08:18:09;-0.60;99.90
16128;DHT22;8168;49.036;7.690;2023-12-04T08:20:39;-0.60;99.90
16128;DHT22;8168;49.036;7.690;2023-12-04T08:23:10;-0.50;99.90
16128;DHT22;8168;49.036;7.690;2023-12-04T08:25:41;-0.50;99.90
16128;DHT22;8168;49.036;7.690;2023-12-04T08:28:11;-0.50;99.90
16128;DHT22;8168;49.036;7.690;2023-12-04T08:30:42;-0.10;99.90
16128;DHT22;8168;49.036;7.690;2023-12-04T08:33:12;-0.40;99.90
16128;DHT22;8168;49.036;7.690;2023-12-04T08:35:43;-0.40;99.90
16128;DHT22;8168;49.036;7.690;2023-12-04T08:38:14;-0.40;99.90
16128;DHT22;8168;49.036;7.690;2023-12-04T08:40:44;-0.40;99.90
16128;DHT22;8168;49.036;7.690;2023-12-04T08:43:15;-0.40;99.90
16128;DHT22;8168;49.036;7.690;2023-12-04T08:48:17;-0.40;99.90
16128;DHT22;8168;49.036;7.690;2023-12-04T08:50:47;-0.30;99.90
16128;DHT22;8168;49.036;7.690;2023-12-04T08:53:18;-0.30;99.90
16128;DHT22;8168;49.036;7.690;2023-12-04T08:55:49;-0.30;99.90
16128;DHT22;8168;49.036;7.690;2023-12-04T08:58:22;-0.20;99.90
16128;DHT22;8168;49.036;7.690;2023-12-04T09:00:52;-0.20;99.90
16128;DHT22;8168;49.036;7.690;2023-12-04T09:03:23;-0.10;99.90
16128;DHT22;8168;49.036;7.690;2023-12-04T09:05:54;-0.10;99.90
16128;DHT22;8168;49.036;7.690;2023-12-04T09:08:26;0.00;99.90
16128;DHT22;8168;49.036;7.690;2023-12-04T09:10:57;2.20;99.90
16128;DHT22;8168;49.036;7.690;2023-12-04T09:13:28;0.10;99.90
16128;DHT22;8168;49.036;7.690;2023-12-04T09:16:00;0.10;99.90
16128;DHT22;8168;49.036;7.690;2023-12-04T09:18:31;0.00;99.90
16128;DHT22;8168;49.036;7.690;2023-12-04T09:21:01;0.00;99.90
16128;DHT22;8168;49.036;7.690;2023-12-04T09:23:32;0.00;99.90
16128;DHT22;8168;49.036;7.690;2023-12-04T09:26:03;0.00;99.90
16128;DHT22;8168;49.036;7.690;2023-12-04T09:28:35;0.00;99.90
16128;DHT22;8168;49.036;7.690;2023-12-04T09:31:06;0.00;99.90
16128;DHT22;8168;49.036;7.690;2023-12-04T09:33:37;0.00;99.90
16128;DHT22;8168;49.036;7.690;2023-12-04T09:36:08;0.00;99.90
16128;DHT22;8168;49.036;7.690;2023-12-04T09:38:38;0.00;99.90
16128;DHT22;8168;49.036;7.690;2023-12-04T09:41:10;0.00;99.90
16128;DHT22;8168;49.036;7.690;2023-12-04T09:43:43;0.60;99.90
16128;DHT22;8168;49.036;7.690;2023-12-04T09:46:15;0.00;99.90
16128;DHT22;8168;49.036;7.690;2023-12-04T09:48:47;0.00;99.90
16128;DHT22;8168;49.036;7.690;2023-12-04T09:51:19;0.00;99.90
16128;DHT22;8168;49.036;7.690;2023-12-04T09:53:51;0.00;99.90
16128;DHT22;8168;49.036;7.690;2023-12-04T09:56:23;0.00;99.90
16128;DHT22;8168;49.036;7.690;2023-12-04T09:58:58;-0.10;99.90
16128;DHT22;8168;49.036;7.690;2023-12-04T10:01:30;-0.10;99.90
16128;DHT22;8168;49.036;7.690;2023-12-04T10:04:01;-0.10;99.90
16128;DHT22;8168;49.036;7.690;2023-12-04T10:06:37;-0.10;99.90
16128;DHT22;8168;49.036;7.690;2023-12-04T10:09:09;-0.10;99.90
16128;DHT22;8168;49.036;7.690;2023-12-04T10:11:42;-0.10;99.90
16128;DHT22;8168;49.036;7.690;2023-12-04T10:14:15;-0.10;99.90
16128;DHT22;8168;49.036;7.690;2023-12-04T10:16:48;-0.10;99.90
16128;DHT22;8168;49.036;7.690;2023-12-04T10:21:50;-0.10;99.90
16128;DHT22;8168;49.036;7.690;2023-12-04T10:27:06;-0.20;99.90
16128;DHT22;8168;49.036;7.690;2023-12-04T10:29:48;-0.10;99.90
16128;DHT22;8168;49.036;7.690;2023-12-04T10:32:19;-0.10;99.90
16128;DHT22;8168;49.036;7.690;2023-12-04T10:34:55;-0.10;99.90
16128;DHT22;8168;49.036;7.690;2023-12-04T10:37:25;-0.10;99.90
16128;DHT22;8168;49.036;7.690;2023-12-04T10:39:59;-0.10;99.90
16128;DHT22;8168;49.036;7.690;2023-12-04T10:42:30;-0.10;99.90
16128;DHT22;8168;49.036;7.690;2023-12-04T10:45:01;-0.10;99.90
16128;DHT22;8168;49.036;7.690;2023-12-04T10:47:32;0.00;99.90
16128;DHT22;8168;49.036;7.690;2023-12-04T10:50:05;0.00;99.90
16128;DHT22;8168;49.036;7.690;2023-12-04T10:52:39;0.00;99.90
16128;DHT22;8168;49.036;7.690;2023-12-04T10:55:11;0.00;99.90
16128;DHT22;8168;49.036;7.690;2023-12-04T10:57:43;0.10;99.90
16128;DHT22;8168;49.036;7.690;2023-12-04T11:00:15;0.10;99.90
16128;DHT22;8168;49.036;7.690;2023-12-04T11:02:47;0.10;99.90
16128;DHT22;8168;49.036;7.690;2023-12-04T11:05:19;0.10;99.90
16128;DHT22;8168;49.036;7.690;2023-12-04T11:07:56;0.20;99.90
16128;DHT22;8168;49.036;7.690;2023-12-04T11:10:29;0.20;99.90
16128;DHT22;8168;49.036;7.690;2023-12-04T11:13:28;0.20;99.90
16128;DHT22;8168;49.036;7.690;2023-12-04T11:16:43;0.10;99.90
16128;DHT22;8168;49.036;7.690;2023-12-04T11:22:19;0.20;99.90
16128;DHT22;8168;49.036;7.690;2023-12-04T11:24:51;0.20;99.90
16128;DHT22;8168;49.036;7.690;2023-12-04T11:27:22;0.20;99.90
16128;DHT22;8168;49.036;7.690;2023-12-04T11:29:53;0.20;99.90
16128;DHT22;8168;49.036;7.690;2023-12-04T11:32:24;0.20;99.90
16128;DHT22;8168;49.036;7.690;2023-12-04T11:35:01;0.30;99.90
16128;DHT22;8168;49.036;7.690;2023-12-04T11:37:33;0.30;99.90
16128;DHT22;8168;49.036;7.690;2023-12-04T11:40:04;0.20;99.90
16128;DHT22;8168;49.036;7.690;2023-12-04T11:42:35;0.30;99.90
16128;DHT22;8168;49.036;7.690;2023-12-04T11:45:06;0.30;99.90
16128;DHT22;8168;49.036;7.690;2023-12-04T11:47:54;0.30;99.90
16128;DHT22;8168;49.036;7.690;2023-12-04T11:50:26;0.40;99.90
16128;DHT22;8168;49.036;7.690;2023-12-04T11:52:56;0.30;99.90
16128;DHT22;8168;49.036;7.690;2023-12-04T11:55:28;0.40;99.90
16128;DHT22;8168;49.036;7.690;2023-12-04T11:57:58;0.30;99.90
16128;DHT22;8168;49.036;7.690;2023-12-04T12:00:29;0.30;99.90
16128;DHT22;8168;49.036;7.690;2023-12-04T12:05:32;0.30;99.90
16128;DHT22;8168;49.036;7.690;2023-12-04T12:08:04;0.30;99.90
16128;DHT22;8168;49.036;7.690;2023-12-04T12:10:35;0.30;99.90
16128;DHT22;8168;49.036;7.690;2023-12-04T12:13:06;0.30;99.90
16128;DHT22;8168;49.036;7.690;2023-12-04T12:15:36;0.30;99.90
16128;DHT22;8168;49.036;7.690;2023-12-04T12:18:07;0.70;99.90
16128;DHT22;8168;49.036;7.690;2023-12-04T12:20:38;0.20;99.90
16128;DHT22;8168;49.036;7.690;2023-12-04T12:23:08;0.90;99.90
16128;DHT22;8168;49.036;7.690;2023-12-04T12:25:39;0.50;99.90
16128;DHT22;8168;49.036;7.690;2023-12-04T12:28:10;0.20;99.90
16128;DHT22;8168;49.036;7.690;2023-12-04T12:30:40;0.20;99.90
16128;DHT22;8168;49.036;7.690;2023-12-04T12:33:13;0.30;99.90
16128;DHT22;8168;49.036;7.690;2023-12-04T12:35:44;0.30;99.90
16128;DHT22;8168;49.036;7.690;2023-12-04T12:38:15;0.70;99.90
16128;DHT22;8168;49.036;7.690;2023-12-04T12:40:46;0.30;99.90
16128;DHT22;8168;49.036;7.690;2023-12-04T12:43:20;0.40;99.90
16128;DHT22;8168;49.036;7.690;2023-12-04T12:45:53;0.30;99.90
16128;DHT22;8168;49.036;7.690;2023-12-04T12:48:26;0.60;99.90
16128;DHT22;8168;49.036;7.690;2023-12-04T12:50:57;0.40;99.90
16128;DHT22;8168;49.036;7.690;2023-12-04T12:53:28;0.40;99.90
16128;DHT22;8168;49.036;7.690;2023-12-04T12:56:00;0.40;99.90
16128;DHT22;8168;49.036;7.690;2023-12-04T12:58:31;0.40;99.90
16128;DHT22;8168;49.036;7.690;2023-12-04T13:01:02;0.40;99.90
16128;DHT22;8168;49.036;7.690;2023-12-04T13:03:32;0.40;99.90
16128;DHT22;8168;49.036;7.690;2023-12-04T13:06:04;0.40;99.90
16128;DHT22;8168;49.036;7.690;2023-12-04T13:08:34;0.40;99.90
16128;DHT22;8168;49.036;7.690;2023-12-04T13:11:05;0.40;99.90
16128;DHT22;8168;49.036;7.690;2023-12-04T13:13:36;0.40;99.90
16128;DHT22;8168;49.036;7.690;2023-12-04T13:16:07;0.40;99.90
16128;DHT22;8168;49.036;7.690;2023-12-04T13:18:38;0.50;99.90
16128;DHT22;8168;49.036;7.690;2023-12-04T13:21:09;0.50;99.90
16128;DHT22;8168;49.036;7.690;2023-12-04T13:23:42;0.50;99.90
16128;DHT22;8168;49.036;7.690;2023-12-04T13:26:12;0.50;99.90
16128;DHT22;8168;49.036;7.690;2023-12-04T13:28:43;0.50;99.90
16128;DHT22;8168;49.036;7.690;2023-12-04T13:31:14;0.50;99.90
16128;DHT22;8168;49.036;7.690;2023-12-04T13:33:44;0.60;99.90
16128;DHT22;8168;49.036;7.690;2023-12-04T13:36:17;0.70;99.90
16128;DHT22;8168;49.036;7.690;2023-12-04T13:38:48;0.60;99.90
16128;DHT22;8168;49.036;7.690;2023-12-04T13:41:18;0.70;99.90
16128;DHT22;8168;49.036;7.690;2023-12-04T13:44:09;0.80;99.90
16128;DHT22;8168;49.036;7.690;2023-12-04T13:46:42;0.80;99.90
16128;DHT22;8168;49.036;7.690;2023-12-04T13:49:13;0.90;99.90
16128;DHT22;8168;49.036;7.690;2023-12-04T13:51:43;0.90;99.90
16128;DHT22;8168;49.036;7.690;2023-12-04T13:54:14;1.00;99.90
16128;DHT22;8168;49.036;7.690;2023-12-04T13:59:26;1.00;99.90
16128;DHT22;8168;49.036;7.690;2023-12-04T14:01:58;1.10;99.90
16128;DHT22;8168;49.036;7.690;2023-12-04T14:04:30;1.10;99.90
16128;DHT22;8168;49.036;7.690;2023-12-04T14:07:01;1.10;99.90
16128;DHT22;8168;49.036;7.690;2023-12-04T14:12:03;1.20;99.90
16128;DHT22;8168;49.036;7.690;2023-12-04T14:14:34;1.20;99.90
16128;DHT22;8168;49.036;7.690;2023-12-04T14:17:05;1.80;99.90
16128;DHT22;8168;49.036;7.690;2023-12-04T14:19:38;1.30;99.90
16128;DHT22;8168;49.036;7.690;2023-12-04T14:22:09;1.30;99.90
16128;DHT22;8168;49.036;7.690;2023-12-04T14:24:40;1.40;99.90
16128;DHT22;8168;49.036;7.690;2023-12-04T14:27:11;1.40;99.90
16128;DHT22;8168;49.036;7.690;2023-12-04T14:29:41;1.40;99.90
16128;DHT22;8168;49.036;7.690;2023-12-04T14:32:12;1.40;99.90
16128;DHT22;8168;49.036;7.690;2023-12-04T14:34:43;1.90;99.90
16128;DHT22;8168;49.036;7.690;2023-12-04T14:37:14;1.40;99.90
16128;DHT22;8168;49.036;7.690;2023-12-04T14:39:45;1.50;99.90
16128;DHT22;8168;49.036;7.690;2023-12-04T14:42:15;1.80;99.90
16128;DHT22;8168;49.036;7.690;2023-12-04T14:44:46;1.50;99.90
16128;DHT22;8168;49.036;7.690;2023-12-04T14:47:17;1.90;99.90
16128;DHT22;8168;49.036;7.690;2023-12-04T14:49:47;1.60;99.90
16128;DHT22;8168;49.036;7.690;2023-12-04T14:52:23;1.70;99.90
16128;DHT22;8168;49.036;7.690;2023-12-04T14:54:54;2.00;99.90
16128;DHT22;8168;49.036;7.690;2023-12-04T14:57:40;1.70;99.90
16128;DHT22;8168;49.036;7.690;2023-12-04T15:00:11;1.60;99.90
16128;DHT22;8168;49.036;7.690;2023-12-04T15:02:57;1.70;99.90
16128;DHT22;8168;49.036;7.690;2023-12-04T15:05:36;1.70;99.90
16128;DHT22;8168;49.036;7.690;2023-12-04T15:08:26;1.70;99.90
16128;DHT22;8168;49.036;7.690;2023-12-04T15:11:15;2.10;99.90
16128;DHT22;8168;49.036;7.690;2023-12-04T15:14:04;1.70;99.90
16128;DHT22;8168;49.036;7.690;2023-12-04T15:16:47;2.10;99.90
16128;DHT22;8168;49.036;7.690;2023-12-04T15:19:22;2.00;99.90
16128;DHT22;8168;49.036;7.690;2023-12-04T15:22:04;1.70;99.90
16128;DHT22;8168;49.036;7.690;2023-12-04T15:24:35;1.80;99.90
16128;DHT22;8168;49.036;7.690;2023-12-04T15:27:07;1.90;99.90
16128;DHT22;8168;49.036;7.690;2023-12-04T15:29:38;2.00;99.90
16128;DHT22;8168;49.036;7.690;2023-12-04T15:32:09;2.00;99.90
16128;DHT22;8168;49.036;7.690;2023-12-04T15:34:39;2.30;99.90
16128;DHT22;8168;49.036;7.690;2023-12-04T15:37:10;1.80;99.90
16128;DHT22;8168;49.036;7.690;2023-12-04T15:39:41;2.10;99.90
16128;DHT22;8168;49.036;7.690;2023-12-04T15:42:11;2.00;99.90
16128;DHT22;8168;49.036;7.690;2023-12-04T15:44:42;2.00;99.90
16128;DHT22;8168;49.036;7.690;2023-12-04T15:47:13;2.00;99.90
16128;DHT22;8168;49.036;7.690;2023-12-04T15:49:43;2.10;99.90
16128;DHT22;8168;49.036;7.690;2023-12-04T15:52:14;2.10;99.90
16128;DHT22;8168;49.036;7.690;2023-12-04T15:54:49;2.10;99.90
16128;DHT22;8168;49.036;7.690;2023-12-04T15:57:20;2.10;99.90
16128;DHT22;8168;49.036;7.690;2023-12-04T15:59:50;2.10;99.90
16128;DHT22;8168;49.036;7.690;2023-12-04T16:02:21;2.30;99.90
16128;DHT22;8168;49.036;7.690;2023-12-04T16:04:52;2.40;99.90
16128;DHT22;8168;49.036;7.690;2023-12-04T16:07:22;2.20;99.90
16128;DHT22;8168;49.036;7.690;2023-12-04T16:09:53;2.20;99.90
16128;DHT22;8168;49.036;7.690;2023-12-04T16:12:23;2.10;99.90
16128;DHT22;8168;49.036;7.690;2023-12-04T16:14:54;2.30;99.90
16128;DHT22;8168;49.036;7.690;2023-12-04T16:17:25;2.10;99.90
16128;DHT22;8168;49.036;7.690;2023-12-04T16:19:55;2.10;99.90
16128;DHT22;8168;49.036;7.690;2023-12-04T16:22:27;2.10;99.90
16128;DHT22;8168;49.036;7.690;2023-12-04T16:24:58;2.10;99.90
16128;DHT22;8168;49.036;7.690;2023-12-04T16:27:28;2.10;99.90
16128;DHT22;8168;49.036;7.690;2023-12-04T16:29:59;2.40;99.90
16128;DHT22;8168;49.036;7.690;2023-12-04T16:32:30;2.10;99.90
16128;DHT22;8168;49.036;7.690;2023-12-04T16:35:00;2.10;99.90
16128;DHT22;8168;49.036;7.690;2023-12-04T16:37:31;2.20;99.90
16128;DHT22;8168;49.036;7.690;2023-12-04T16:40:02;2.20;99.90
16128;DHT22;8168;49.036;7.690;2023-12-04T16:42:33;2.30;99.90
16128;DHT22;8168;49.036;7.690;2023-12-04T16:45:04;2.40;99.90
16128;DHT22;8168;49.036;7.690;2023-12-04T16:47:35;2.40;99.90
16128;DHT22;8168;49.036;7.690;2023-12-04T16:50:05;2.40;99.90
16128;DHT22;8168;49.036;7.690;2023-12-04T16:52:36;2.50;99.90
16128;DHT22;8168;49.036;7.690;2023-12-04T16:55:07;2.50;99.90
16128;DHT22;8168;49.036;7.690;2023-12-04T16:57:38;2.50;99.90
16128;DHT22;8168;49.036;7.690;2023-12-04T17:00:09;2.50;99.90
16128;DHT22;8168;49.036;7.690;2023-12-04T17:02:41;2.50;99.90
16128;DHT22;8168;49.036;7.690;2023-12-04T17:05:12;2.70;99.90
16128;DHT22;8168;49.036;7.690;2023-12-04T17:07:43;2.60;99.90
16128;DHT22;8168;49.036;7.690;2023-12-04T17:10:15;2.60;99.90
16128;DHT22;8168;49.036;7.690;2023-12-04T17:12:46;2.60;99.90
16128;DHT22;8168;49.036;7.690;2023-12-04T17:15:17;2.60;99.90
16128;DHT22;8168;49.036;7.690;2023-12-04T17:17:48;2.70;99.90
16128;DHT22;8168;49.036;7.690;2023-12-04T17:20:19;2.60;99.90
16128;DHT22;8168;49.036;7.690;2023-12-04T17:22:49;2.60;99.90
16128;DHT22;8168;49.036;7.690;2023-12-04T17:25:20;2.70;99.90
16128;DHT22;8168;49.036;7.690;2023-12-04T17:27:51;2.70;99.90
16128;DHT22;8168;49.036;7.690;2023-12-04T17:30:22;2.80;99.90
16128;DHT22;8168;49.036;7.690;2023-12-04T17:32:53;2.70;99.90
16128;DHT22;8168;49.036;7.690;2023-12-04T17:35:24;3.00;99.90
16128;DHT22;8168;49.036;7.690;2023-12-04T17:37:56;2.90;99.90
16128;DHT22;8168;49.036;7.690;2023-12-04T17:40:26;2.80;99.90
16128;DHT22;8168;49.036;7.690;2023-12-04T17:42:57;2.90;99.90
16128;DHT22;8168;49.036;7.690;2023-12-04T17:45:28;3.30;99.90
16128;DHT22;8168;49.036;7.690;2023-12-04T17:48:03;2.90;99.90
16128;DHT22;8168;49.036;7.690;2023-12-04T17:50:34;3.00;99.90
16128;DHT22;8168;49.036;7.690;2023-12-04T17:53:04;3.10;99.90
16128;DHT22;8168;49.036;7.690;2023-12-04T17:55:35;3.20;99.90
16128;DHT22;8168;49.036;7.690;2023-12-04T17:58:06;3.20;99.90
16128;DHT22;8168;49.036;7.690;2023-12-04T18:00:36;3.20;99.90
16128;DHT22;8168;49.036;7.690;2023-12-04T18:03:08;3.10;99.90
16128;DHT22;8168;49.036;7.690;2023-12-04T18:05:39;3.10;99.90
16128;DHT22;8168;49.036;7.690;2023-12-04T18:08:10;3.10;99.90
16128;DHT22;8168;49.036;7.690;2023-12-04T18:10:41;3.10;99.90
16128;DHT22;8168;49.036;7.690;2023-12-04T18:13:12;3.10;99.90
16128;DHT22;8168;49.036;7.690;2023-12-04T18:15:42;3.20;99.90
16128;DHT22;8168;49.036;7.690;2023-12-04T18:18:13;3.20;99.90
16128;DHT22;8168;49.036;7.690;2023-12-04T18:20:44;3.20;99.90
16128;DHT22;8168;49.036;7.690;2023-12-04T18:23:17;3.20;99.90
16128;DHT22;8168;49.036;7.690;2023-12-04T18:25:48;3.20;99.90
16128;DHT22;8168;49.036;7.690;2023-12-04T18:28:19;3.20;99.90
16128;DHT22;8168;49.036;7.690;2023-12-04T18:30:50;3.20;99.90
16128;DHT22;8168;49.036;7.690;2023-12-04T18:33:21;3.20;99.90
16128;DHT22;8168;49.036;7.690;2023-12-04T18:35:52;3.20;99.90
16128;DHT22;8168;49.036;7.690;2023-12-04T18:38:29;3.10;99.90
16128;DHT22;8168;49.036;7.690;2023-12-04T18:41:02;3.10;99.90
16128;DHT22;8168;49.036;7.690;2023-12-04T18:43:33;3.10;99.90
16128;DHT22;8168;49.036;7.690;2023-12-04T18:46:04;3.20;99.90
16128;DHT22;8168;49.036;7.690;2023-12-04T18:48:36;3.10;99.90
16128;DHT22;8168;49.036;7.690;2023-12-04T18:51:07;3.40;99.90
16128;DHT22;8168;49.036;7.690;2023-12-04T18:53:38;3.10;99.90
16128;DHT22;8168;49.036;7.690;2023-12-04T18:56:09;3.20;99.90
16128;DHT22;8168;49.036;7.690;2023-12-04T18:58:40;3.10;99.90
16128;DHT22;8168;49.036;7.690;2023-12-04T19:01:10;3.10;99.90
16128;DHT22;8168;49.036;7.690;2023-12-04T19:03:41;3.20;99.90
16128;DHT22;8168;49.036;7.690;2023-12-04T19:06:12;3.00;99.90
16128;DHT22;8168;49.036;7.690;2023-12-04T19:08:42;3.00;99.90
16128;DHT22;8168;49.036;7.690;2023-12-04T19:11:13;2.90;99.90
16128;DHT22;8168;49.036;7.690;2023-12-04T19:13:44;2.90;99.90
16128;DHT22;8168;49.036;7.690;2023-12-04T19:16:15;3.20;99.90
16128;DHT22;8168;49.036;7.690;2023-12-04T19:18:45;3.40;99.90
16128;DHT22;8168;49.036;7.690;2023-12-04T19:21:16;3.20;99.90
16128;DHT22;8168;49.036;7.690;2023-12-04T19:23:48;2.80;99.90
16128;DHT22;8168;49.036;7.690;2023-12-04T19:26:19;2.80;99.90
16128;DHT22;8168;49.036;7.690;2023-12-04T19:28:49;2.80;99.90
16128;DHT22;8168;49.036;7.690;2023-12-04T19:31:20;2.90;99.90
16128;DHT22;8168;49.036;7.690;2023-12-04T19:33:50;1.70;99.90
16128;DHT22;8168;49.036;7.690;2023-12-04T19:36:22;3.20;99.90
16128;DHT22;8168;49.036;7.690;2023-12-04T19:38:52;2.80;99.90
16128;DHT22;8168;49.036;7.690;2023-12-04T19:41:30;2.80;99.90
16128;DHT22;8168;49.036;7.690;2023-12-04T19:44:01;2.80;99.90
16128;DHT22;8168;49.036;7.690;2023-12-04T19:46:32;2.80;99.90
16128;DHT22;8168;49.036;7.690;2023-12-04T19:49:02;2.80;99.90
16128;DHT22;8168;49.036;7.690;2023-12-04T19:51:33;3.10;99.90
16128;DHT22;8168;49.036;7.690;2023-12-04T19:54:04;2.70;99.90
16128;DHT22;8168;49.036;7.690;2023-12-04T19:56:36;2.70;99.90
16128;DHT22;8168;49.036;7.690;2023-12-04T19:59:06;2.70;99.90
16128;DHT22;8168;49.036;7.690;2023-12-04T20:01:37;2.70;99.90
16128;DHT22;8168;49.036;7.690;2023-12-04T20:04:07;2.80;99.90
16128;DHT22;8168;49.036;7.690;2023-12-04T20:06:38;3.00;99.90
16128;DHT22;8168;49.036;7.690;2023-12-04T20:09:09;3.20;99.90
16128;DHT22;8168;49.036;7.690;2023-12-04T20:11:40;2.90;99.90
16128;DHT22;8168;49.036;7.690;2023-12-04T20:14:10;2.80;99.90
16128;DHT22;8168;49.036;7.690;2023-12-04T20:16:41;2.80;99.90
16128;DHT22;8168;49.036;7.690;2023-12-04T20:19:12;2.80;99.90
16128;DHT22;8168;49.036;7.690;2023-12-04T20:21:42;2.70;99.90
16128;DHT22;8168;49.036;7.690;2023-12-04T20:24:13;2.80;99.90
16128;DHT22;8168;49.036;7.690;2023-12-04T20:26:45;2.90;99.90
16128;DHT22;8168;49.036;7.690;2023-12-04T20:29:15;3.00;99.90
16128;DHT22;8168;49.036;7.690;2023-12-04T20:31:47;2.80;99.90
16128;DHT22;8168;49.036;7.690;2023-12-04T20:34:17;2.80;99.90
16128;DHT22;8168;49.036;7.690;2023-12-04T20:36:48;3.10;99.90
16128;DHT22;8168;49.036;7.690;2023-12-04T20:39:18;2.80;99.90
16128;DHT22;8168;49.036;7.690;2023-12-04T20:41:49;2.70;99.90
16128;DHT22;8168;49.036;7.690;2023-12-04T20:44:19;2.70;99.90
16128;DHT22;8168;49.036;7.690;2023-12-04T20:46:50;2.90;99.90
16128;DHT22;8168;49.036;7.690;2023-12-04T20:49:22;3.20;99.90
16128;DHT22;8168;49.036;7.690;2023-12-04T20:51:54;2.60;99.90
16128;DHT22;8168;49.036;7.690;2023-12-04T20:54:25;2.70;99.90
16128;DHT22;8168;49.036;7.690;2023-12-04T20:56:55;3.10;99.90
16128;DHT22;8168;49.036;7.690;2023-12-04T20:59:26;2.80;99.90
16128;DHT22;8168;49.036;7.690;2023-12-04T21:01:57;2.70;99.90
16128;DHT22;8168;49.036;7.690;2023-12-04T21:04:28;2.70;99.90
16128;DHT22;8168;49.036;7.690;2023-12-04T21:06:58;2.70;99.90
16128;DHT22;8168;49.036;7.690;2023-12-04T21:09:30;2.80;99.90
16128;DHT22;8168;49.036;7.690;2023-12-04T21:12:03;3.50;99.90
16128;DHT22;8168;49.036;7.690;2023-12-04T21:14:33;2.80;99.90
16128;DHT22;8168;49.036;7.690;2023-12-04T21:17:05;2.90;99.90
16128;DHT22;8168;49.036;7.690;2023-12-04T21:19:36;2.90;99.90
16128;DHT22;8168;49.036;7.690;2023-12-04T21:22:07;2.90;99.90
16128;DHT22;8168;49.036;7.690;2023-12-04T21:24:37;4.60;99.90
16128;DHT22;8168;49.036;7.690;2023-12-04T21:27:08;2.90;99.90
16128;DHT22;8168;49.036;7.690;2023-12-04T21:29:39;2.90;99.90
16128;DHT22;8168;49.036;7.690;2023-12-04T21:32:10;2.90;99.90
16128;DHT22;8168;49.036;7.690;2023-12-04T21:34:42;3.10;99.90
16128;DHT22;8168;49.036;7.690;2023-12-04T21:37:13;3.00;99.90
16128;DHT22;8168;49.036;7.690;2023-12-04T21:39:44;3.00;99.90
16128;DHT22;8168;49.036;7.690;2023-12-04T21:42:15;3.00;99.90
16128;DHT22;8168;49.036;7.690;2023-12-04T21:44:45;3.30;99.90
16128;DHT22;8168;49.036;7.690;2023-12-04T21:47:16;3.10;99.90